Date,TemperatureHighF,TemperatureAvgF,TemperatureLowF,DewpointHighF,DewpointAvgF,DewpointLowF,HumidityHigh,HumidityAvg,HumidityLow,PressureMaxIn,PressureMinIn,WindSpeedMaxMPH,WindSpeedAvgMPH,GustSpeedMaxMPH,PrecipitationSumIn
2014-1-1,21,17,12,19,14,6,95,87,76,30.42,30.22,25,7,27,0.00
2014-1-2,21,18,9,20,16,7,95,93,89,30.22,29.70,27,8,27,0.00
2014-1-3,9,1,-2,7,-2,-7,91,85,66,30.49,29.72,35,17,35,0.00
2014-1-4,19,10,1,11,2,-8,81,68,54,30.50,30.30,32,13,33,0.00
2014-1-5,44,31,18,44,25,11,99,79,46,30.31,29.62,58,17,65,0.19
2014-1-6,48,28,-4,48,24,-12,99,86,57,29.78,29.34,51,19,57,0.34
2014-1-7,-3,-7,-13,-9,-14,-19,80,72,65,30.44,29.77,37,15,40,0.00
2014-1-8,12,4,-4,4,-2,-9,85,75,66,30.61,30.44,23,8,23,0.00
2014-1-9,24,16,11,13,10,4,91,77,60,30.70,30.54,26,10,26,0.00
2014-1-10,36,27,18,36,25,12,99,94,71,30.54,30.14,32,12,33,0.01
2014-1-11,51,44,35,51,44,35,100,99,99,30.14,29.54,51,25,54,0.10
2014-1-12,31,30,26,27,26,24,92,86,83,30.06,29.78,27,12,29,0.00
2014-1-13,43,37,27,36,30,24,92,76,62,30.08,29.81,38,12,38,0.00
2014-1-14,42,38,32,38,37,32,99,96,77,29.84,29.66,23,7,23,0.25
2014-1-15,42,33,27,36,31,25,99,91,72,29.92,29.84,22,8,25,0.00
2014-1-16,27,24,22,25,22,17,96,91,78,29.95,29.85,21,6,22,0.00
2014-1-17,32,27,21,24,21,16,88,78,69,29.95,29.84,21,7,21,0.00
2014-1-18,29,20,13,25,18,9,96,90,83,29.88,29.75,24,9,24,0.00
2014-1-19,25,17,9,20,13,6,93,87,76,29.87,29.68,35,10,36,0.00
2014-1-20,30,25,12,27,21,9,93,83,75,29.89,29.62,32,13,32,0.00
2014-1-21,12,5,-6,9,2,-10,90,83,70,29.98,29.86,42,23,42,0.00
2014-1-22,3,-5,-11,-6,-10,-14,86,80,65,30.11,29.91,50,23,51,0.00
2014-1-23,9,2,-4,4,-2,-8,90,82,67,30.36,30.09,28,10,28,0.00
2014-1-24,8,4,-2,0,-3,-7,88,73,58,30.43,29.96,38,13,41,0.00
2014-1-25,16,12,8,15,6,-3,93,78,56,29.97,29.41,37,13,37,0.00
2014-1-26,20,9,3,11,3,-4,90,76,61,29.87,29.58,35,14,40,0.00
2014-1-27,34,19,4,27,9,-5,91,63,36,30.08,29.59,39,16,39,0.00
2014-1-28,5,1,-4,0,-6,-11,87,73,57,30.38,30.08,19,7,19,0.00
2014-1-29,10,4,-4,-3,-7,-12,75,61,50,30.36,30.17,27,10,27,0.00
2014-1-30,23,12,4,6,0,-3,72,60,42,30.47,30.13,33,10,33,0.00
2014-1-31,29,22,13,18,10,2,64,58,51,30.25,30.08,29,8,29,0.00
2014-2-1,36,32,27,30,21,16,89,65,48,30.29,29.97,38,12,41,0.00
2014-2-2,38,33,26,36,29,25,98,85,62,30.10,29.92,31,10,31,0.02
2014-2-3,26,21,13,26,20,12,97,95,92,30.32,30.07,34,18,35,0.00
2014-2-4,22,16,10,18,13,8,93,87,80,30.49,30.25,31,13,31,0.00
2014-2-5,28,23,14,28,22,12,98,95,85,30.29,29.65,38,12,38,0.00
2014-2-6,18,13,7,14,10,5,93,87,76,30.31,30.06,34,11,35,0.00
2014-2-7,21,15,12,10,8,-1,89,72,54,30.34,30.25,28,10,28,0.00
2014-2-8,18,12,6,10,1,-5,91,62,46,30.34,30.19,20,6,20,0.00
2014-2-9,20,14,8,14,10,6,93,87,69,30.21,29.99,21,8,21,0.00
2014-2-10,16,12,8,13,6,3,93,77,57,30.30,30.05,31,12,32,0.00
2014-2-11,13,8,4,5,1,-1,83,73,58,30.51,30.29,26,15,27,0.00
2014-2-12,18,9,1,13,2,-1,90,71,48,30.56,30.27,32,14,32,0.00
2014-2-13,27,22,15,26,21,12,97,95,89,30.28,29.23,44,22,44,0.00
2014-2-14,27,24,21,24,21,19,96,90,80,29.77,29.22,37,13,39,0.00
2014-2-15,25,22,13,24,20,9,96,91,77,29.84,29.67,45,15,45,0.00
2014-2-16,14,10,4,12,7,2,92,86,74,30.20,29.84,38,14,38,0.00
2014-2-17,21,12,4,7,4,1,91,70,46,30.46,30.18,38,16,38,0.00
2014-2-18,28,23,15,25,18,5,96,83,55,30.22,29.98,45,16,48,0.00
2014-2-19,38,32,25,35,28,21,96,86,65,30.08,29.69,46,14,46,0.03
2014-2-20,42,34,27,28,25,17,88,70,36,30.23,29.93,41,13,41,0.01
2014-2-21,47,38,32,46,34,22,99,89,54,29.93,29.60,51,20,55,0.26
2014-2-22,45,39,31,23,18,15,56,42,31,29.98,29.86,41,14,43,0.00
2014-2-23,41,37,32,29,25,16,76,64,38,29.99,29.83,23,8,23,0.00
2014-2-24,32,21,15,25,12,7,87,67,46,30.08,29.81,40,15,40,0.00
2014-2-25,20,16,13,13,9,6,89,73,62,30.08,29.96,26,10,34,0.00
2014-2-26,15,13,7,12,3,-5,92,66,43,29.96,29.83,31,9,33,0.00
2014-2-27,18,9,-2,11,-2,-16,89,61,46,30.11,29.64,45,16,46,0.00
2014-2-28,14,4,-5,-4,-9,-13,70,56,39,30.44,30.11,29,8,31,0.00
2014-3-1,27,18,7,15,3,-8,66,52,43,30.41,30.17,29,11,29,0.00
2014-3-2,29,22,13,21,15,8,94,78,62,30.17,30.03,35,15,35,0.00
2014-3-3,13,6,1,8,-1,-4,83,73,53,30.38,30.03,42,24,43,0.00
2014-3-4,21,10,-1,6,0,-5,86,66,34,30.44,30.26,26,9,26,0.00
2014-3-5,22,18,9,11,6,3,87,60,49,30.47,30.22,35,13,35,0.00
2014-3-6,24,13,3,9,2,-3,90,64,31,30.62,30.43,22,11,25,0.00
2014-3-7,40,26,13,28,21,6,93,79,63,30.44,29.96,28,8,28,0.00
2014-3-8,41,34,28,32,27,23,95,77,65,29.96,29.83,25,10,25,0.00
2014-3-9,32,27,23,27,17,8,96,67,36,30.03,29.90,27,14,31,0.00
2014-3-10,45,35,25,34,26,17,90,70,61,29.93,29.61,24,9,24,0.00
2014-3-11,55,48,42,38,36,33,80,65,48,29.67,29.58,27,10,28,0.00
2014-3-12,50,38,10,42,33,6,98,82,64,29.64,28.95,50,17,67,0.18
2014-3-13,16,10,5,6,0,-4,90,64,43,30.14,29.30,62,28,67,0.00
2014-3-14,40,26,12,22,12,-4,64,54,47,30.19,29.83,38,14,41,0.00
2014-3-15,44,39,28,34,26,20,82,60,45,30.00,29.72,37,15,37,0.00
2014-3-16,28,19,14,20,8,-1,77,64,51,30.21,30.00,33,18,34,0.00
2014-3-17,28,17,9,6,1,-9,67,50,34,30.14,30.05,36,12,36,0.00
2014-3-18,39,28,19,13,4,-6,47,37,26,30.25,30.12,28,10,28,0.00
2014-3-19,36,29,24,35,25,10,98,85,48,30.22,29.82,42,16,42,0.01
2014-3-20,38,34,29,35,29,20,99,83,65,29.92,29.74,40,15,43,0.01
2014-3-21,42,33,27,21,18,15,72,56,35,30.04,29.90,33,12,33,0.00
2014-3-22,51,40,30,34,24,17,74,56,34,30.00,29.72,42,18,44,0.00
2014-3-23,30,24,13,23,15,7,88,68,49,30.15,29.98,36,18,38,0.00
2014-3-24,22,15,8,7,4,2,79,61,44,30.25,30.15,38,13,39,0.00
2014-3-25,25,21,16,22,12,2,94,71,49,30.17,29.90,23,6,24,0.00
2014-3-26,22,17,12,21,9,2,95,71,50,30.27,29.86,48,23,50,0.00
2014-3-27,34,23,10,19,9,0,74,57,39,30.42,30.15,37,11,37,0.00
2014-3-28,50,39,30,48,36,19,99,88,59,30.16,29.94,39,13,39,0.08
2014-3-29,46,39,33,45,38,33,99,96,87,30.15,29.58,41,17,42,0.36
2014-3-30,41,32,27,41,32,27,99,99,98,29.68,29.56,44,15,45,0.18
2014-3-31,42,31,25,38,28,24,99,91,66,30.13,29.78,47,11,47,0.02
2014-4-1,55,43,27,34,30,25,90,63,41,30.16,29.95,32,12,32,0.00
2014-4-2,55,47,41,37,34,29,79,61,42,30.08,29.96,27,7,28,0.00
2014-4-3,50,41,31,34,25,17,84,56,28,30.12,29.97,34,16,34,0.11
2014-4-4,38,36,34,38,35,34,99,98,86,29.99,29.63,55,23,55,0.19
2014-4-5,39,35,28,39,30,21,99,82,59,30.09,29.71,41,16,41,0.00
2014-4-6,50,36,25,22,19,13,82,55,25,30.23,30.09,30,12,32,0.00
2014-4-7,42,39,35,41,28,19,99,69,43,30.20,29.55,53,17,53,0.15
2014-4-8,48,44,39,47,40,33,99,86,62,29.65,29.41,46,17,46,0.10
2014-4-9,47,40,34,34,30,19,93,68,42,30.01,29.62,38,17,39,0.00
2014-4-10,59,47,35,34,28,18,61,47,36,30.15,29.91,43,11,43,0.00
2014-4-11,60,50,42,50,42,34,99,75,47,30.00,29.88,31,9,32,0.23
2014-4-12,62,49,38,49,38,31,99,72,33,30.23,29.99,24,7,26,0.01
2014-4-13,73,60,49,54,47,33,86,62,42,30.10,29.88,35,16,35,0.00
2014-4-14,66,62,56,55,54,52,89,75,66,29.90,29.69,43,17,46,0.00
2014-4-15,60,46,23,58,44,21,99,95,76,29.90,29.41,43,20,43,0.80
2014-4-16,32,24,16,21,15,9,92,67,49,30.60,29.90,47,20,47,0.00
2014-4-17,44,34,25,27,20,14,86,57,39,30.69,30.55,32,14,32,0.00
2014-4-18,46,36,26,32,28,24,96,75,56,30.58,30.26,24,9,25,0.00
2014-4-19,51,43,38,35,29,24,88,60,35,30.36,30.24,37,15,37,0.00
2014-4-20,57,46,37,32,28,23,64,51,34,30.43,30.27,24,11,24,0.00
2014-4-21,67,51,37,28,21,11,66,34,13,30.27,29.82,21,7,21,0.00
2014-4-22,61,53,47,50,38,24,93,60,34,29.82,29.48,28,8,28,0.02
2014-4-23,47,38,34,42,32,25,89,79,69,29.91,29.53,53,22,53,0.00
2014-4-24,48,39,30,26,16,11,76,43,23,30.06,29.91,47,23,48,0.00
2014-4-25,57,44,37,40,24,6,98,49,24,30.05,29.69,40,15,42,0.13
2014-4-26,58,45,39,45,39,31,99,81,52,29.88,29.68,41,14,41,0.01
2014-4-27,46,39,34,34,32,30,89,75,58,30.14,29.88,38,20,38,0.00
2014-4-28,54,44,34,35,32,30,89,65,42,30.15,30.00,28,11,28,0.00
2014-4-29,49,40,35,41,36,34,99,90,59,30.29,30.03,45,18,45,0.26
2014-4-30,51,41,35,51,41,35,100,99,99,30.28,29.82,62,34,63,1.63
2014-5-1,64,55,50,56,49,40,100,83,56,29.83,29.69,42,11,43,0.11
2014-5-2,53,48,44,40,36,34,78,64,51,29.84,29.70,26,10,26,0.00
2014-5-3,56,49,44,45,39,36,91,69,52,29.84,29.69,31,8,31,0.06
2014-5-4,53,46,42,43,35,23,94,70,34,29.85,29.69,44,17,44,0.01
2014-5-5,55,46,39,34,28,18,82,52,29,29.95,29.85,44,21,44,0.00
2014-5-6,56,48,41,32,28,19,55,46,35,30.07,29.87,38,16,38,0.00
2014-5-7,62,50,40,43,33,27,80,53,34,30.22,30.07,25,9,25,0.00
2014-5-8,71,55,46,57,50,43,98,85,61,30.14,30.02,20,7,20,0.19
2014-5-9,67,57,51,59,55,50,99,93,75,30.09,29.87,35,15,36,0.00
2014-5-10,72,63,58,62,58,54,100,85,54,29.90,29.80,33,11,33,0.01
2014-5-11,71,62,53,56,42,36,96,52,31,30.05,29.86,26,9,27,0.01
2014-5-12,76,68,62,56,49,42,69,51,42,30.08,30.00,19,5,19,0.00
2014-5-13,76,65,50,62,54,37,75,67,57,30.12,29.99,33,9,34,0.00
2014-5-14,67,56,45,59,50,35,98,81,60,30.20,30.10,31,12,31,0.00
2014-5-15,72,62,58,65,60,57,100,92,63,30.15,29.90,43,20,43,0.03
2014-5-16,64,54,47,61,53,47,100,97,89,29.91,29.61,55,17,55,2.47
2014-5-17,54,47,40,47,40,34,100,78,50,30.13,29.85,24,10,24,0.00
2014-5-18,51,45,39,40,38,32,98,76,55,30.22,30.12,31,10,31,0.00
2014-5-19,59,51,44,48,37,32,87,60,39,30.24,30.12,37,12,37,0.06
2014-5-20,66,56,50,49,43,40,83,62,40,30.17,30.00,18,6,18,0.02
2014-5-21,57,56,54,55,50,45,98,84,68,30.02,29.84,17,4,17,0.04
2014-5-22,69,59,54,62,56,52,100,91,59,29.84,29.74,28,5,35,0.55
2014-5-23,60,52,48,56,48,45,98,88,62,29.97,29.82,29,10,30,0.33
2014-5-24,64,54,48,51,48,45,99,83,52,30.09,29.95,31,13,31,0.01
2014-5-25,71,62,52,52,46,35,83,57,29,30.11,30.04,23,6,23,0.00
2014-5-26,76,67,54,54,49,43,74,54,42,30.05,29.88,24,7,25,0.00
2014-5-27,75,66,61,64,57,50,99,74,54,29.90,29.77,28,6,28,0.13
2014-5-28,68,61,49,64,59,48,100,93,68,30.05,29.75,30,10,30,0.02
2014-5-29,50,48,44,48,46,44,99,95,86,30.16,30.05,19,5,19,0.00
2014-5-30,68,56,48,52,48,44,100,77,45,30.13,30.03,36,13,36,0.01
2014-5-31,65,57,49,49,43,34,89,61,38,30.25,30.08,41,16,41,0.00
2014-6-1,70,60,51,52,48,45,84,65,45,30.31,30.18,18,6,19,0.00
2014-6-2,78,65,54,61,54,46,85,68,53,30.20,29.98,20,7,20,0.00
2014-6-3,76,68,63,66,62,56,91,80,67,29.98,29.75,23,6,24,0.00
2014-6-4,68,62,55,57,52,44,93,70,46,29.83,29.72,29,9,29,0.00
2014-6-5,64,57,52,56,51,48,99,81,57,29.81,29.64,25,10,25,0.36
2014-6-6,63,56,47,51,49,45,93,78,62,29.97,29.80,28,13,28,0.00
2014-6-7,73,63,52,54,50,48,87,65,44,30.03,29.92,27,11,27,0.00
2014-6-8,75,69,63,58,53,46,79,59,43,29.94,29.77,28,7,28,0.00
2014-6-9,66,61,58,64,60,56,99,96,80,29.92,29.77,25,7,25,0.06
2014-6-10,69,64,60,66,63,60,100,98,89,29.94,29.87,18,6,18,0.01
2014-6-11,64,60,56,64,60,56,100,100,99,30.00,29.91,33,14,35,0.07
2014-6-12,63,60,57,63,60,57,100,100,100,30.00,29.84,41,18,42,0.50
2014-6-13,71,64,59,69,64,59,100,98,85,29.84,29.68,25,5,27,0.74
2014-6-14,60,54,51,60,52,47,100,91,79,30.05,29.79,28,13,28,0.00
2014-6-15,68,58,50,55,51,47,95,78,53,30.16,30.04,29,11,29,0.00
2014-6-16,78,71,63,64,56,41,89,61,40,30.11,29.97,17,4,17,0.00
2014-6-17,80,72,64,69,66,62,99,82,58,30.04,29.82,35,6,35,0.00
2014-6-18,79,72,63,69,63,58,93,76,59,29.94,29.80,35,12,35,0.00
2014-6-19,70,64,57,64,59,42,100,86,57,30.01,29.87,27,11,27,0.07
2014-6-20,67,59,49,50,44,39,76,60,44,30.02,29.92,27,13,28,0.00
2014-6-21,70,62,52,55,48,42,77,62,48,29.95,29.85,21,8,21,0.00
2014-6-22,72,64,56,58,50,45,89,64,40,29.97,29.87,15,7,16,0.00
2014-6-23,72,65,58,63,58,54,91,79,65,30.06,29.97,23,8,24,0.00
2014-6-24,75,66,58,66,60,55,98,82,72,30.06,29.93,27,11,27,0.08
2014-6-25,78,69,64,69,65,60,99,89,71,29.94,29.75,26,7,26,0.29
2014-6-26,72,66,61,65,62,61,100,89,69,29.97,29.78,27,13,27,0.02
2014-6-27,76,67,60,63,59,55,99,77,50,30.15,29.97,17,7,18,0.00
2014-6-28,77,69,61,62,60,56,98,76,53,30.24,30.15,15,5,16,0.00
2014-6-29,75,68,62,63,60,58,89,75,60,30.18,30.05,24,6,24,0.00
2014-6-30,76,69,62,67,62,57,89,80,70,30.05,29.88,19,7,20,0.02
2014-7-1,81,72,66,71,68,64,96,86,70,29.91,29.75,30,8,30,0.00
2014-7-2,81,74,70,74,71,67,98,90,74,29.82,29.75,31,6,31,0.06
2014-7-3,81,71,62,71,66,61,99,87,67,29.93,29.80,47,8,52,0.64
2014-7-4,63,59,54,63,54,46,100,84,64,30.09,29.92,45,16,47,0.18
2014-7-5,71,62,53,52,49,46,82,63,43,30.19,30.08,34,14,34,0.00
2014-7-6,74,66,58,58,53,49,75,63,44,30.09,29.88,22,6,22,0.00
2014-7-7,80,72,64,66,62,56,94,71,59,29.88,29.68,35,10,36,0.05
2014-7-8,80,71,63,68,65,62,99,81,64,29.76,29.56,42,9,42,0.80
2014-7-9,76,67,61,66,62,60,100,86,61,29.94,29.70,27,8,27,0.01
2014-7-10,70,64,57,61,58,53,99,83,65,30.12,29.94,22,11,22,0.00
2014-7-11,75,67,59,62,57,52,86,73,55,30.19,30.11,17,7,18,0.00
2014-7-12,76,69,63,68,64,59,96,83,70,30.18,30.04,24,8,24,0.00
2014-7-13,77,70,65,70,67,64,99,90,74,30.04,29.79,37,10,37,0.38
2014-7-14,71,67,64,69,66,64,100,98,91,29.86,29.76,18,3,18,0.07
2014-7-15,75,68,64,69,66,64,100,94,75,29.79,29.68,16,4,16,0.02
2014-7-16,70,64,58,65,56,51,98,75,55,29.87,29.71,29,9,29,0.00
2014-7-17,68,62,56,56,54,50,90,76,57,30.10,29.87,20,8,20,0.00
2014-7-18,72,63,56,56,52,50,86,68,53,30.22,30.10,15,4,15,0.00
2014-7-19,70,65,60,59,54,48,84,68,56,30.20,30.11,19,8,20,0.00
2014-7-20,72,65,58,60,56,52,88,75,57,30.12,30.06,19,6,20,0.01
2014-7-21,74,67,60,66,62,58,99,85,69,30.16,30.08,15,5,15,0.00
2014-7-22,78,70,64,69,66,62,96,87,72,30.13,29.98,19,6,19,0.00
2014-7-23,82,71,63,72,67,61,99,89,66,29.98,29.74,33,9,33,0.04
2014-7-24,66,61,55,62,54,49,96,80,60,29.93,29.80,30,16,31,0.00
2014-7-25,73,61,50,54,50,47,92,70,44,30.05,29.93,24,8,24,0.00
2014-7-26,73,65,60,59,55,49,84,70,55,29.98,29.84,16,4,18,0.00
2014-7-27,79,70,62,66,63,58,97,79,56,29.84,29.55,24,7,28,0.20
2014-7-28,69,60,55,63,59,53,99,95,69,29.75,29.45,28,10,35,0.39
2014-7-29,61,56,52,53,51,48,98,82,63,29.97,29.74,27,8,27,0.00
2014-7-30,68,60,52,56,52,49,94,76,60,30.03,29.96,17,5,17,0.00
2014-7-31,71,63,55,61,57,53,97,81,65,30.10,29.99,23,6,23,0.00
2014-8-1,75,67,61,66,62,57,96,84,65,30.14,30.09,26,6,28,0.11
2014-8-2,67,63,61,64,62,59,99,94,83,30.14,30.04,13,5,14,0.12
2014-8-3,70,64,60,64,62,60,100,93,74,30.07,29.99,16,5,16,0.00
2014-8-4,73,66,59,63,61,59,100,86,65,30.07,30.00,16,6,16,0.00
2014-8-5,78,69,59,65,60,57,94,77,51,30.04,29.88,35,7,36,0.00
2014-8-6,72,62,57,59,56,51,99,82,54,29.92,29.85,28,11,28,0.00
2014-8-7,70,62,56,57,51,47,84,68,48,30.02,29.91,35,13,35,0.00
2014-8-8,70,62,54,56,52,48,85,72,54,30.10,30.02,24,9,24,0.00
2014-8-9,75,65,57,57,53,49,91,68,43,30.12,30.06,20,10,20,0.00
2014-8-10,78,71,63,60,55,50,72,58,43,30.11,30.04,15,5,15,0.00
2014-8-11,75,68,64,61,56,50,80,66,45,30.07,29.96,26,8,27,0.00
2014-8-12,64,61,59,64,61,57,100,97,79,29.97,29.71,46,22,46,0.73
2014-8-13,70,63,56,65,61,52,100,93,75,29.81,29.68,44,10,49,1.29
2014-8-14,66,58,49,54,50,44,95,77,56,29.88,29.78,25,9,25,0.00
2014-8-15,59,54,47,51,48,44,90,78,67,29.97,29.87,21,7,23,0.00
2014-8-16,67,59,51,52,50,47,94,74,50,30.00,29.89,20,6,20,0.00
2014-8-17,68,61,55,61,55,51,99,80,65,29.91,29.84,28,10,29,0.24
2014-8-18,69,60,53,58,54,52,98,81,60,29.91,29.82,22,9,22,0.00
2014-8-19,74,66,58,63,57,50,82,72,65,29.89,29.83,15,6,15,0.00
2014-8-20,73,67,62,66,63,60,95,87,77,29.95,29.87,19,7,20,0.00
2014-8-21,76,68,61,68,64,60,98,90,71,29.99,29.91,22,6,22,0.00
2014-8-22,68,63,60,66,62,60,99,97,90,29.98,29.92,23,8,23,0.52
2014-8-23,60,58,55,60,58,54,100,98,92,30.11,29.96,25,8,26,0.60
2014-8-24,71,63,57,60,57,53,99,81,56,30.16,30.10,17,6,17,0.00
2014-8-25,75,68,61,61,57,50,89,71,52,30.17,30.10,14,4,14,0.00
2014-8-26,76,70,65,63,60,55,79,70,52,30.14,30.02,15,4,15,0.00
2014-8-27,80,70,64,70,64,56,98,80,68,30.02,29.86,28,6,29,0.00
2014-8-28,65,58,53,63,52,47,97,79,59,30.08,29.85,33,18,35,0.00
2014-8-29,69,58,50,56,51,47,90,77,59,30.19,30.07,20,7,20,0.00
2014-8-30,66,61,55,63,58,53,99,92,86,30.20,30.08,25,12,25,0.00
2014-8-31,72,67,65,70,67,62,100,97,87,30.10,29.94,25,7,31,0.17
2014-9-1,78,70,66,70,68,66,100,93,76,29.98,29.88,14,4,14,0.01
2014-9-2,79,73,63,70,68,63,99,85,65,29.90,29.73,22,8,27,0.12
2014-9-3,73,65,58,63,59,56,99,82,57,30.10,29.82,20,7,20,0.01
2014-9-4,77,70,64,66,61,56,87,73,59,30.14,30.05,18,5,21,0.00
2014-9-5,78,71,65,71,68,63,99,90,74,30.12,29.96,19,6,22,0.00
2014-9-6,78,68,55,71,66,54,100,93,71,29.96,29.80,38,10,40,0.09
2014-9-7,65,58,51,56,52,50,100,82,58,30.19,29.92,31,15,32,0.01
2014-9-8,68,60,55,56,51,49,89,73,58,30.28,30.18,24,12,26,0.00
2014-9-9,66,58,53,58,54,50,93,87,76,30.23,30.09,26,11,29,0.00
2014-9-10,67,61,56,60,58,55,99,90,78,30.10,29.90,27,8,31,0.00
2014-9-11,73,64,55,68,62,52,100,93,76,29.95,29.78,36,14,38,0.06
2014-9-12,56,51,45,53,48,43,95,88,77,30.18,29.95,43,21,45,0.00
2014-9-13,54,50,45,54,50,43,100,97,89,30.19,30.07,30,13,33,0.35
2014-9-14,57,49,43,46,43,40,98,80,57,30.29,30.18,38,14,44,0.00
2014-9-15,61,53,43,48,45,41,95,74,57,30.23,30.02,12,5,13,0.00
2014-9-16,57,54,50,51,49,48,96,85,75,30.03,29.95,21,8,25,0.00
2014-9-17,61,55,48,49,45,42,92,72,50,30.04,29.95,15,4,15,0.00
2014-9-18,63,56,49,49,46,41,92,69,48,30.11,29.93,28,9,31,0.00
2014-9-19,60,49,41,50,46,40,99,89,66,30.29,30.11,36,14,37,0.00
2014-9-20,67,57,49,59,55,48,99,92,74,30.26,29.99,32,15,34,0.00
2014-9-21,74,63,56,63,59,55,99,87,61,30.00,29.57,27,10,27,0.08
2014-9-22,58,51,43,56,46,37,98,83,68,30.16,29.65,28,15,31,0.00
2014-9-23,62,51,42,50,44,38,88,76,60,30.40,30.16,21,10,22,0.00
2014-9-24,64,57,53,53,50,46,88,76,66,30.52,30.40,21,9,22,0.00
2014-9-25,59,54,50,54,50,48,97,89,82,30.42,30.23,23,11,23,0.00
2014-9-26,67,56,47,55,51,47,99,84,63,30.26,30.19,23,14,25,0.01
2014-9-27,73,62,52,57,53,50,99,76,46,30.24,30.16,19,12,20,0.00
2014-9-28,75,68,63,59,55,50,76,63,47,30.16,29.98,13,4,14,0.00
2014-9-29,68,64,60,59,56,51,91,77,64,29.98,29.86,9,3,10,0.00
2014-9-30,68,60,54,60,56,53,99,88,68,29.92,29.84,18,7,18,0.00
2014-10-1,65,58,54,57,54,53,98,90,69,30.05,29.92,16,6,17,0.00
2014-10-2,62,56,52,56,54,52,99,91,80,30.11,30.04,12,4,13,0.00
2014-10-3,61,56,51,56,53,51,99,93,82,30.07,29.66,44,15,44,0.01
2014-10-4,56,49,36,55,46,33,99,91,65,29.71,29.53,42,14,46,0.27
2014-10-5,46,39,32,38,34,30,93,82,69,29.99,29.70,23,7,23,0.00
2014-10-6,60,50,40,48,41,34,84,72,56,30.00,29.88,40,17,42,0.00
2014-10-7,62,55,51,53,49,42,98,80,49,29.97,29.71,36,15,38,0.05
2014-10-8,60,54,50,53,47,39,98,78,56,29.92,29.68,41,13,41,0.01
2014-10-9,56,50,43,41,38,36,83,66,50,30.04,29.91,32,11,33,0.00
2014-10-10,53,47,42,41,38,34,82,72,56,30.11,30.03,12,3,12,0.00
2014-10-11,52,46,42,46,41,36,98,85,69,30.17,30.00,25,8,27,0.29
2014-10-12,56,45,37,40,37,33,95,74,43,30.29,30.17,24,10,24,0.00
2014-10-13,56,50,46,55,48,38,99,94,70,30.27,30.17,26,13,31,0.00
2014-10-14,67,62,56,63,60,55,100,95,82,30.19,29.93,42,18,42,0.03
2014-10-15,64,62,58,64,62,58,100,99,96,29.94,29.69,40,15,40,3.27
2014-10-16,64,57,50,63,54,50,100,93,66,29.69,29.60,34,8,34,0.30
2014-10-17,61,54,48,53,50,48,100,87,66,29.70,29.60,30,9,30,0.01
2014-10-18,54,50,42,50,46,39,93,86,77,29.75,29.53,37,10,38,0.02
2014-10-19,42,37,33,40,30,26,95,78,56,30.07,29.75,41,18,41,0.01
2014-10-20,52,43,33,42,34,27,83,72,53,30.08,29.91,30,8,31,0.00
2014-10-21,53,48,46,48,46,42,99,92,82,29.92,29.81,18,7,18,0.01
2014-10-22,47,44,41,46,44,41,99,99,99,29.98,29.87,46,21,46,0.14
2014-10-23,43,40,39,43,40,38,100,100,99,29.89,29.82,43,24,43,0.20
2014-10-24,56,48,43,44,42,32,100,79,57,29.90,29.84,44,21,44,0.00
2014-10-25,59,51,43,49,40,26,86,66,47,29.89,29.58,30,11,32,0.02
2014-10-26,53,47,43,43,37,34,73,69,64,29.85,29.55,42,16,44,0.00
2014-10-27,54,46,38,39,35,33,86,67,47,30.04,29.84,29,10,29,0.00
2014-10-28,72,61,52,55,45,33,70,56,48,29.99,29.83,29,10,32,0.00
2014-10-29,63,50,43,55,47,38,98,89,68,29.91,29.81,27,7,27,0.23
2014-10-30,44,40,37,41,35,31,92,80,73,30.02,29.90,24,10,25,0.00
2014-10-31,45,40,35,35,32,30,87,75,57,30.01,29.87,17,8,17,0.00
2014-11-1,41,37,32,37,34,28,98,89,69,29.91,29.82,54,21,54,0.00
2014-11-2,35,31,29,30,23,17,97,74,52,30.16,29.87,61,29,61,0.00
2014-11-3,50,41,29,30,23,15,86,54,26,30.22,30.12,27,13,27,0.00
2014-11-4,61,54,47,28,22,18,35,30,22,30.17,29.96,27,10,27,0.00
2014-11-5,57,51,46,45,33,24,78,51,29,30.09,29.95,27,10,29,0.00
2014-11-6,46,42,37,43,38,31,99,89,57,30.06,29.59,30,9,31,0.11
2014-11-7,37,33,27,37,31,21,99,91,78,29.97,29.61,41,17,41,0.03
2014-11-8,39,32,24,29,25,21,88,75,61,30.02,29.86,27,9,27,0.00
2014-11-9,43,39,35,34,30,28,79,70,61,30.00,29.88,18,6,18,0.00
2014-11-10,55,46,39,38,32,28,73,60,42,30.14,30.00,28,10,29,0.00
2014-11-11,54,48,40,54,46,34,99,95,72,30.05,29.87,33,15,33,0.00
2014-11-12,54,47,31,53,41,25,99,82,46,30.05,29.82,34,13,34,0.00
2014-11-13,34,30,25,28,26,23,97,83,73,30.09,30.00,27,6,30,0.00
2014-11-14,30,26,22,24,19,14,96,75,52,30.21,29.99,25,14,32,0.00
2014-11-15,31,26,21,22,17,14,91,71,50,30.37,30.21,27,10,29,0.00
2014-11-16,33,29,25,26,21,18,88,73,68,30.34,30.03,31,10,31,0.00
2014-11-17,38,32,27,38,32,23,99,97,83,30.02,29.50,37,12,40,0.11
2014-11-18,27,15,11,23,6,2,85,70,58,30.12,29.64,45,17,45,0.00
2014-11-19,20,15,8,11,6,3,81,69,58,30.30,30.00,33,12,35,0.00
2014-11-20,30,24,18,20,14,7,71,63,54,30.04,29.89,45,13,45,0.00
2014-11-21,24,19,14,11,9,7,80,66,51,30.51,30.04,31,12,32,0.00
2014-11-22,36,26,15,20,13,8,77,59,35,30.52,30.21,26,10,26,0.00
2014-11-23,53,43,36,42,26,18,95,53,40,30.21,29.81,47,11,47,0.00
2014-11-24,62,55,43,56,52,42,99,90,76,29.81,29.45,57,20,59,0.28
2014-11-25,56,42,37,48,30,27,76,62,43,30.14,29.68,37,12,37,0.00